Time;durP1;ratioP1;P1;durP2;ratioP2;P2;SDS_P1;SDS_P2;PMS_P1;PMS_P2;Temp;Humidity;BMP_temperature;BMP_pressure;BME280_temperature;BME280_humidity;BME280_pressure;Samples;Min_cycle;Max_cycle;Signal;HPM_P1;HPM_P2
2023/07/05 00:01:40;;;;;;;7.72;3.95;;;17.70;99.90;;;;;;4934751;29;20346;-58
2023/07/05 00:04:06;;;;;;;7.80;3.38;;;17.70;99.90;;;;;;4931127;29;20038;-60
2023/07/05 00:06:32;;;;;;;6.10;3.42;;;17.70;99.90;;;;;;4933089;29;20102;-59
2023/07/05 00:08:58;;;;;;;7.57;3.40;;;17.70;99.90;;;;;;4931273;29;20039;-59
2023/07/05 00:11:23;;;;;;;5.43;2.92;;;17.60;99.90;;;;;;4931263;29;20593;-60
2023/07/05 00:13:49;;;;;;;7.97;3.22;;;17.50;99.90;;;;;;4931137;29;20070;-59
2023/07/05 00:16:15;;;;;;;6.40;3.35;;;17.40;99.90;;;;;;4933121;29;20034;-59
2023/07/05 00:18:41;;;;;;;9.10;4.10;;;17.40;99.90;;;;;;4931161;29;20040;-59
2023/07/05 00:21:09;;;;;;;7.57;3.28;;;17.30;99.90;;;;;;4935389;29;20048;-59
2023/07/05 00:23:38;;;;;;;8.07;4.30;;;17.20;99.90;;;;;;4935727;28;20111;-60
2023/07/05 00:26:05;;;;;;;6.63;3.20;;;17.20;99.90;;;;;;4929720;29;20315;-60
2023/07/05 00:28:34;;;;;;;9.55;3.60;;;17.10;99.90;;;;;;4934496;29;20027;-59
2023/07/05 00:31:01;;;;;;;5.68;3.33;;;17.10;99.90;;;;;;4930494;29;20122;-59
2023/07/05 00:33:27;;;;;;;6.53;3.55;;;17.00;99.90;;;;;;4931003;29;20063;-59
2023/07/05 00:35:54;;;;;;;5.43;3.28;;;17.00;99.90;;;;;;4930022;29;20477;-59
2023/07/05 00:38:21;;;;;;;8.10;3.72;;;16.90;99.90;;;;;;4931311;29;20045;-57
2023/07/05 00:40:46;;;;;;;6.82;3.08;;;16.80;99.90;;;;;;4931296;29;20015;-59
2023/07/05 00:43:13;;;;;;;13.10;3.50;;;16.80;99.90;;;;;;4932264;29;20426;-59
2023/07/05 00:45:57;;;;;;;6.30;3.17;;;16.80;99.90;;;;;;4930686;29;20198;-58
2023/07/05 00:48:34;;;;;;;9.32;3.15;;;16.80;99.90;;;;;;4926317;29;20457;-59
2023/07/05 00:51:04;;;;;;;6.70;3.28;;;16.80;99.90;;;;;;4931113;29;20143;-59
2023/07/05 00:53:33;;;;;;;5.53;2.85;;;16.80;99.90;;;;;;4929176;29;20039;-59
2023/07/05 00:56:09;;;;;;;4.75;2.70;;;16.80;99.90;;;;;;4915971;29;20039;-59
2023/07/05 00:58:35;;;;;;;5.07;2.83;;;16.80;99.90;;;;;;4931235;29;20024;-59
2023/07/05 01:01:01;;;;;;;6.53;3.60;;;16.80;99.90;;;;;;4930409;29;20031;-59
2023/07/05 01:03:28;;;;;;;5.38;2.58;;;16.80;99.90;;;;;;4928917;29;20055;-58
2023/07/05 01:05:58;;;;;;;5.18;3.13;;;16.80;99.90;;;;;;4930948;29;20032;-59
2023/07/05 01:08:24;;;;;;;10.45;3.35;;;16.80;99.90;;;;;;4932650;29;20110;-59
2023/07/05 01:11:28;;;;;;;5.40;3.15;;;16.80;99.90;;;;;;4931913;29;20473;-59
2023/07/05 01:14:01;;;;;;;6.88;3.00;;;16.80;99.90;;;;;;4913858;29;20504;-58
2023/07/05 01:16:51;;;;;;;6.57;2.90;;;16.80;99.90;;;;;;4933121;29;20019;-58
2023/07/05 01:19:23;;;;;;;5.43;2.85;;;16.80;99.90;;;;;;4925994;29;20039;-59
2023/07/05 01:21:59;;;;;;;3.50;2.15;;;16.70;99.90;;;;;;4931109;29;20099;-58
2023/07/05 01:25:06;;;;;;;5.43;2.78;;;16.80;99.90;;;;;;4923730;29;20063;-59
2023/07/05 01:27:56;;;;;;;9.77;3.15;;;16.80;99.90;;;;;;4921173;29;20055;-56
2023/07/05 01:30:52;;;;;;;6.25;2.50;;;16.80;99.90;;;;;;4923713;29;20122;-58
2023/07/05 01:33:40;;;;;;;5.20;2.47;;;16.90;99.90;;;;;;4922488;29;20123;-54
2023/07/05 01:36:09;;;;;;;4.78;2.60;;;16.90;99.90;;;;;;4929397;29;20035;-57
2023/07/05 01:38:34;;;;;;;6.47;2.63;;;16.90;99.90;;;;;;4928666;28;20063;-59
2023/07/05 01:41:04;;;;;;;4.90;2.55;;;16.90;99.90;;;;;;4914031;29;20044;-59
2023/07/05 01:43:31;;;;;;;6.75;2.97;;;16.90;99.90;;;;;;4927157;28;20568;-56
2023/07/05 01:46:21;;;;;;;7.35;3.03;;;16.90;99.90;;;;;;4929316;29;20481;-56
2023/07/05 01:48:56;;;;;;;4.47;2.20;;;16.90;99.90;;;;;;4924674;29;20044;-56
2023/07/05 01:51:55;;;;;;;4.35;2.47;;;16.90;99.90;;;;;;4928593;29;20068;-58
2023/07/05 01:54:45;;;;;;;4.57;2.28;;;17.00;99.90;;;;;;4926137;29;20031;-55
2023/07/05 01:57:17;;;;;;;5.15;2.33;;;17.00;99.90;;;;;;4931559;29;20059;-57
2023/07/05 02:00:17;;;;;;;5.13;2.30;;;17.00;99.90;;;;;;4928378;29;20095;-59
2023/07/05 02:02:55;;;;;;;4.15;2.20;;;17.00;99.90;;;;;;4893906;29;20032;-54
2023/07/05 02:05:23;;;;;;;5.32;1.90;;;17.10;99.90;;;;;;4928163;29;20092;-54
2023/07/05 02:07:49;;;;;;;5.40;2.03;;;17.10;99.90;;;;;;4928215;29;20035;-59
2023/07/05 02:10:15;;;;;;;4.78;2.00;;;17.20;99.90;;;;;;4929065;29;20043;-58
2023/07/05 02:12:40;;;;;;;3.25;1.80;;;17.20;99.90;;;;;;4927944;29;20028;-60
2023/07/05 02:15:07;;;;;;;3.05;1.73;;;17.20;99.90;;;;;;4929879;29;20380;-57
2023/07/05 02:17:32;;;;;;;3.20;1.75;;;17.30;99.90;;;;;;4929201;29;20027;-59
2023/07/05 02:19:58;;;;;;;4.03;1.77;;;17.30;99.90;;;;;;4929250;29;20059;-58
2023/07/05 02:22:24;;;;;;;4.82;2.03;;;17.30;99.90;;;;;;4931198;29;20115;-59
2023/07/05 02:24:51;;;;;;;5.30;1.70;;;17.30;99.90;;;;;;4927648;29;20028;-59
2023/07/05 02:27:17;;;;;;;4.40;1.90;;;17.30;99.90;;;;;;4929199;29;20038;-55
2023/07/05 02:29:43;;;;;;;3.85;1.70;;;17.30;99.90;;;;;;4928810;29;20032;-60
2023/07/05 02:32:09;;;;;;;3.35;1.48;;;17.40;99.90;;;;;;4929925;29;20114;-58
2023/07/05 02:34:40;;;;;;;3.55;1.90;;;17.30;99.90;;;;;;4932050;29;20507;-58
2023/07/05 02:37:10;;;;;;;3.30;1.65;;;17.40;99.90;;;;;;4930218;29;20071;-59
2023/07/05 02:39:36;;;;;;;4.63;1.67;;;17.40;99.90;;;;;;4929966;29;20039;-56
2023/07/05 02:42:05;;;;;;;3.60;1.90;;;17.30;99.90;;;;;;4929911;29;20043;-59
2023/07/05 02:44:30;;;;;;;4.50;1.65;;;17.30;99.90;;;;;;4930525;29;20408;-58
2023/07/05 02:46:56;;;;;;;3.80;1.40;;;17.30;99.90;;;;;;4929377;29;20042;-56
2023/07/05 02:49:22;;;;;;;3.75;1.33;;;17.30;99.90;;;;;;4930553;29;20031;-59
2023/07/05 02:51:48;;;;;;;2.67;1.42;;;17.30;99.90;;;;;;4928357;29;20027;-59
2023/07/05 02:54:14;;;;;;;2.53;1.40;;;17.30;99.90;;;;;;4923746;29;20036;-59
2023/07/05 02:56:40;;;;;;;3.15;1.60;;;17.30;99.90;;;;;;4927448;29;20032;-59
2023/07/05 02:59:05;;;;;;;3.05;1.55;;;17.30;99.90;;;;;;4931650;29;20020;-56
2023/07/05 03:01:31;;;;;;;2.63;1.52;;;17.30;99.90;;;;;;4930055;29;20460;-60
2023/07/05 03:03:56;;;;;;;3.88;1.35;;;17.30;99.90;;;;;;4927677;29;20028;-58
2023/07/05 03:06:22;;;;;;;2.30;1.20;;;17.30;99.90;;;;;;4930512;29;20471;-59
2023/07/05 03:08:48;;;;;;;3.17;1.60;;;17.30;99.90;;;;;;4931228;29;20362;-57
2023/07/05 03:11:14;;;;;;;2.83;1.58;;;17.30;99.90;;;;;;4921866;29;20036;-59
2023/07/05 03:13:40;;;;;;;2.95;1.30;;;17.30;99.90;;;;;;4930782;29;20036;-59
2023/07/05 03:16:07;;;;;;;3.60;1.40;;;17.30;99.90;;;;;;4930431;29;20048;-60
2023/07/05 03:18:33;;;;;;;2.58;1.40;;;17.30;99.90;;;;;;4929981;29;20511;-58
2023/07/05 03:20:59;;;;;;;3.58;1.20;;;17.30;99.90;;;;;;4929366;29;20123;-59
2023/07/05 03:23:25;;;;;;;2.90;1.40;;;17.30;99.90;;;;;;4928463;29;20437;-59
2023/07/05 03:25:54;;;;;;;2.90;1.48;;;17.20;99.90;;;;;;4930525;29;20052;-56
2023/07/05 03:28:19;;;;;;;2.00;0.95;;;17.20;99.90;;;;;;4930571;29;20024;-57
2023/07/05 03:31:15;;;;;;;2.60;0.85;;;17.20;99.90;;;;;;4926992;29;20044;-58
2023/07/05 03:33:41;;;;;;;1.85;1.02;;;17.10;99.90;;;;;;4925110;29;20118;-60
2023/07/05 03:36:11;;;;;;;3.47;0.98;;;16.90;99.90;;;;;;4929008;29;20040;-58
2023/07/05 03:38:36;;;;;;;2.67;1.10;;;16.70;99.90;;;;;;4929585;29;20605;-59
2023/07/05 03:41:08;;;;;;;1.63;0.77;;;16.50;99.90;;;;;;4929073;29;20036;-55
2023/07/05 03:43:35;;;;;;;2.35;1.10;;;16.40;99.90;;;;;;4928796;29;20039;-59
2023/07/05 03:46:03;;;;;;;2.22;0.90;;;16.30;99.90;;;;;;4929000;29;20104;-57
2023/07/05 03:48:37;;;;;;;3.30;1.17;;;16.20;99.90;;;;;;4931320;29;20042;-58
2023/07/05 03:51:03;;;;;;;9.68;2.55;;;16.10;99.90;;;;;;4930265;29;20053;-53
2023/07/05 03:53:29;;;;;;;3.15;1.10;;;16.00;99.90;;;;;;4929866;29;20126;-57
2023/07/05 03:56:01;;;;;;;3.25;1.20;;;15.90;99.90;;;;;;4930935;29;20102;-58
2023/07/05 03:58:27;;;;;;;2.25;1.13;;;15.80;99.90;;;;;;4930252;29;20028;-57
2023/07/05 04:00:53;;;;;;;1.92;1.00;;;15.70;99.90;;;;;;4930903;29;20034;-52
2023/07/05 04:03:19;;;;;;;4.68;0.90;;;15.70;99.90;;;;;;4930436;29;20035;-54
2023/07/05 04:05:45;;;;;;;2.60;1.17;;;15.70;99.90;;;;;;4931087;29;20095;-57
2023/07/05 04:08:10;;;;;;;1.80;1.00;;;15.60;99.90;;;;;;4934473;29;20465;-58
2023/07/05 04:10:36;;;;;;;2.20;1.10;;;15.60;99.90;;;;;;4934944;29;20039;-56
2023/07/05 04:13:02;;;;;;;2.38;1.13;;;15.50;99.90;;;;;;4930974;29;20338;-59
2023/07/05 04:15:27;;;;;;;3.28;1.30;;;15.50;99.90;;;;;;4934275;29;20040;-57
2023/07/05 04:17:53;;;;;;;1.92;1.02;;;15.40;99.90;;;;;;4933980;29;20030;-58
2023/07/05 04:20:18;;;;;;;3.72;1.35;;;15.40;99.90;;;;;;4934117;29;20366;-59
2023/07/05 04:22:44;;;;;;;2.55;1.10;;;15.40;99.90;;;;;;4934317;29;20027;-59
2023/07/05 04:25:10;;;;;;;6.15;1.60;;;15.30;99.90;;;;;;4933974;29;20476;-59
2023/07/05 04:27:36;;;;;;;2.55;1.10;;;15.20;99.90;;;;;;4938214;29;20031;-56
2023/07/05 04:30:03;;;;;;;1.75;1.00;;;15.20;99.90;;;;;;4931625;29;20270;-56
2023/07/05 04:32:30;;;;;;;2.35;1.10;;;15.10;99.90;;;;;;4932981;29;20139;-54
2023/07/05 04:34:55;;;;;;;3.13;1.20;;;15.10;99.90;;;;;;4933600;29;20079;-59
2023/07/05 04:37:21;;;;;;;2.75;1.42;;;15.10;99.90;;;;;;4932986;29;20028;-58
2023/07/05 04:39:47;;;;;;;5.18;1.65;;;15.10;99.90;;;;;;4933667;29;20032;-58
2023/07/05 04:42:12;;;;;;;3.05;1.48;;;15.10;99.90;;;;;;4933220;29;20028;-56
2023/07/05 04:44:38;;;;;;;4.75;2.25;;;15.10;99.90;;;;;;4934200;29;20031;-55
2023/07/05 04:47:04;;;;;;;2.83;1.50;;;15.00;99.90;;;;;;4934396;29;20074;-57
2023/07/05 04:49:29;;;;;;;3.70;1.20;;;15.10;99.90;;;;;;4934787;29;20039;-57
2023/07/05 04:51:55;;;;;;;3.10;1.05;;;15.10;99.90;;;;;;4931178;29;20115;-57
2023/07/05 04:54:20;;;;;;;5.38;1.88;;;15.10;99.90;;;;;;4923064;29;20127;-57
2023/07/05 04:56:46;;;;;;;4.28;1.45;;;15.10;99.90;;;;;;4934472;29;20123;-54
2023/07/05 04:59:12;;;;;;;3.88;1.60;;;15.10;99.90;;;;;;4923623;29;20024;-59
2023/07/05 05:01:38;;;;;;;4.28;1.60;;;15.20;99.90;;;;;;4915409;29;20152;-58
2023/07/05 05:04:04;;;;;;;4.00;1.63;;;15.10;99.90;;;;;;4923086;29;20136;-58
2023/07/05 05:06:29;;;;;;;5.28;1.42;;;15.20;99.90;;;;;;4925309;29;20059;-53
2023/07/05 05:08:55;;;;;;;5.97;2.60;;;15.30;99.90;;;;;;4919727;29;20138;-57
2023/07/05 05:11:21;;;;;;;6.50;2.63;;;15.30;99.90;;;;;;4914641;29;20394;-59
2023/07/05 05:13:49;;;;;;;4.38;1.70;;;15.30;99.90;;;;;;4914745;29;20028;-59
2023/07/05 05:16:15;;;;;;;7.18;2.38;;;15.40;99.90;;;;;;4934199;29;20028;-57
2023/07/05 05:18:41;;;;;;;4.57;1.85;;;15.40;99.90;;;;;;4919046;29;20393;-57
2023/07/05 05:21:07;;;;;;;5.80;2.13;;;15.40;99.90;;;;;;4926483;29;20190;-58
2023/07/05 05:23:32;;;;;;;3.90;1.63;;;15.40;99.90;;;;;;4913803;29;20446;-56
2023/07/05 05:25:58;;;;;;;4.25;1.77;;;15.50;99.90;;;;;;4914463;29;20160;-57
2023/07/05 05:28:24;;;;;;;6.60;1.60;;;15.50;99.90;;;;;;4914721;29;20028;-56
2023/07/05 05:30:49;;;;;;;5.22;1.90;;;15.60;99.90;;;;;;4914501;29;20028;-58
2023/07/05 05:33:17;;;;;;;5.57;2.13;;;15.70;99.90;;;;;;4913988;29;20032;-56
2023/07/05 05:35:47;;;;;;;3.83;1.77;;;15.80;99.90;;;;;;4922080;29;20036;-58
2023/07/05 05:38:13;;;;;;;4.50;1.70;;;15.80;99.90;;;;;;4924816;29;20034;-57
2023/07/05 05:40:38;;;;;;;4.05;1.73;;;15.80;99.90;;;;;;4918842;29;20241;-58
2023/07/05 05:43:04;;;;;;;3.30;1.42;;;15.70;99.90;;;;;;4915868;29;20063;-58
2023/07/05 05:45:30;;;;;;;5.38;1.83;;;15.70;99.90;;;;;;4927730;29;20039;-57
2023/07/05 05:47:55;;;;;;;3.75;1.50;;;15.70;99.90;;;;;;4914677;29;20047;-54
2023/07/05 05:50:22;;;;;;;2.95;1.60;;;15.70;99.90;;;;;;4915069;29;20123;-53
2023/07/05 05:52:48;;;;;;;4.00;1.48;;;15.60;99.90;;;;;;4921366;29;20131;-52
2023/07/05 05:55:14;;;;;;;6.50;2.10;;;15.60;99.90;;;;;;4913916;29;20508;-51
2023/07/05 05:57:39;;;;;;;5.13;1.70;;;15.60;99.90;;;;;;4921253;29;20028;-52
2023/07/05 06:00:09;;;;;;;5.97;1.85;;;15.60;99.90;;;;;;4923350;29;20032;-54
2023/07/05 06:02:34;;;;;;;4.65;1.83;;;15.60;99.90;;;;;;4914190;29;20131;-53
2023/07/05 06:05:00;;;;;;;6.00;1.65;;;15.50;99.90;;;;;;4914302;29;20087;-57
2023/07/05 06:07:27;;;;;;;3.78;1.63;;;15.50;99.90;;;;;;4914318;29;20028;-57
2023/07/05 06:09:52;;;;;;;3.97;1.60;;;15.50;99.90;;;;;;4922041;29;20056;-51
2023/07/05 06:12:18;;;;;;;2.97;1.40;;;15.50;99.90;;;;;;4925082;29;20420;-54
2023/07/05 06:14:44;;;;;;;5.10;1.40;;;15.60;99.90;;;;;;4924665;29;20032;-52
2023/07/05 06:17:10;;;;;;;3.40;1.60;;;15.60;99.90;;;;;;4917401;29;20031;-56
2023/07/05 06:19:36;;;;;;;5.45;2.05;;;15.50;99.90;;;;;;4932240;29;20043;-49
2023/07/05 06:22:02;;;;;;;4.25;2.25;;;15.50;99.90;;;;;;4929862;28;20094;-54
2023/07/05 06:24:27;;;;;;;4.22;1.88;;;15.60;99.90;;;;;;4932304;29;20035;-49
2023/07/05 06:26:53;;;;;;;6.78;2.10;;;15.60;99.90;;;;;;4917822;29;20104;-56
2023/07/05 06:29:18;;;;;;;2.72;1.20;;;15.60;99.90;;;;;;4921868;29;20040;-56
2023/07/05 06:31:44;;;;;;;4.60;1.90;;;15.60;99.90;;;;;;4921863;29;20114;-57
2023/07/05 06:34:10;;;;;;;4.07;1.50;;;15.60;99.90;;;;;;4924756;29;20397;-56
2023/07/05 06:36:35;;;;;;;4.43;1.13;;;15.60;99.90;;;;;;4919512;29;20055;-57
2023/07/05 06:39:03;;;;;;;2.95;1.35;;;15.50;99.90;;;;;;4915156;29;20039;-57
2023/07/05 06:41:29;;;;;;;4.22;1.60;;;15.50;99.90;;;;;;4914421;29;20051;-58
2023/07/05 06:43:54;;;;;;;3.72;1.30;;;15.40;99.90;;;;;;4929811;29;20028;-54
2023/07/05 06:46:20;;;;;;;3.00;1.40;;;15.40;99.90;;;;;;4925354;29;20442;-56
2023/07/05 06:48:45;;;;;;;2.97;1.38;;;15.50;99.90;;;;;;4918417;29;20032;-56
2023/07/05 06:51:11;;;;;;;3.05;0.95;;;15.70;99.90;;;;;;4922201;29;20040;-58
2023/07/05 06:53:37;;;;;;;3.90;1.38;;;15.70;99.90;;;;;;4914085;29;20023;-59
2023/07/05 06:56:03;;;;;;;2.45;1.30;;;15.60;99.90;;;;;;4915780;29;20044;-58
2023/07/05 06:58:28;;;;;;;5.30;1.33;;;15.60;99.90;;;;;;4922299;29;20051;-57
2023/07/05 07:00:54;;;;;;;4.07;0.90;;;15.60;99.90;;;;;;4929547;29;20035;-58
2023/07/05 07:03:20;;;;;;;2.97;1.20;;;15.60;99.90;;;;;;4924807;29;20031;-58
2023/07/05 07:05:57;;;;;;;2.97;1.20;;;15.60;99.90;;;;;;4918202;29;20437;-58
2023/07/05 07:08:28;;;;;;;3.42;1.00;;;15.50;99.90;;;;;;4914899;29;20039;-58
2023/07/05 07:10:54;;;;;;;4.72;1.10;;;15.60;99.90;;;;;;4922353;29;20048;-58
2023/07/05 07:13:19;;;;;;;2.83;1.20;;;15.60;99.90;;;;;;4914457;29;20040;-56
2023/07/05 07:15:45;;;;;;;4.10;1.30;;;15.60;99.90;;;;;;4928687;29;20043;-58
2023/07/05 07:18:11;;;;;;;3.30;1.02;;;15.50;99.90;;;;;;4915335;29;20024;-58
2023/07/05 07:20:37;;;;;;;6.20;1.85;;;15.50;99.90;;;;;;4921990;29;20417;-58
2023/07/05 07:23:02;;;;;;;6.53;1.95;;;15.50;99.90;;;;;;4915533;29;20071;-59
2023/07/05 07:25:28;;;;;;;5.30;1.50;;;15.40;99.90;;;;;;4918584;29;20055;-59
2023/07/05 07:27:54;;;;;;;2.55;1.30;;;15.40;99.90;;;;;;4917709;29;20478;-59
2023/07/05 07:30:19;;;;;;;4.32;1.27;;;15.40;99.90;;;;;;4917709;29;20416;-57
2023/07/05 07:32:46;;;;;;;6.15;1.60;;;15.30;99.90;;;;;;4923651;29;20123;-59
2023/07/05 07:35:13;;;;;;;4.68;1.20;;;15.30;99.90;;;;;;4921863;29;20042;-55
2023/07/05 07:37:38;;;;;;;3.22;1.25;;;15.30;99.90;;;;;;4927535;29;20099;-54
2023/07/05 07:40:08;;;;;;;3.10;1.20;;;15.20;99.90;;;;;;4923311;29;20506;-54
2023/07/05 07:42:34;;;;;;;4.28;1.10;;;15.20;99.90;;;;;;4927405;29;20027;-59
2023/07/05 07:45:00;;;;;;;3.30;1.00;;;15.20;99.90;;;;;;4935050;29;20086;-58
2023/07/05 07:47:25;;;;;;;2.53;1.10;;;15.10;99.90;;;;;;4924250;29;20245;-58
2023/07/05 07:49:51;;;;;;;6.28;1.55;;;15.10;99.90;;;;;;4918661;29;20044;-59
2023/07/05 07:52:18;;;;;;;2.35;1.20;;;15.10;99.90;;;;;;4925502;29;20058;-56
2023/07/05 07:54:44;;;;;;;14.70;1.50;;;15.10;99.90;;;;;;4917786;29;20032;-56
2023/07/05 07:57:09;;;;;;;2.80;1.20;;;15.20;99.90;;;;;;4919303;29;20468;-51
2023/07/05 07:59:40;;;;;;;3.35;1.30;;;15.20;99.90;;;;;;4924993;29;20017;-57
2023/07/05 08:02:13;;;;;;;3.40;1.20;;;15.30;99.90;;;;;;4918909;29;20433;-57
2023/07/05 08:04:46;;;;;;;4.15;1.00;;;15.40;99.90;;;;;;4925640;29;20047;-55
2023/07/05 08:07:14;;;;;;;12.15;5.45;;;15.60;99.90;;;;;;4942569;29;20040;-57
2023/07/05 08:09:40;;;;;;;15.10;6.43;;;15.60;99.90;;;;;;4947771;29;20027;-59
2023/07/05 08:12:06;;;;;;;11.95;5.53;;;15.70;99.90;;;;;;4941371;28;20388;-57
2023/07/05 08:14:32;;;;;;;2.78;1.10;;;15.80;99.90;;;;;;4944566;29;20396;-58
2023/07/05 08:16:57;;;;;;;5.43;1.23;;;15.70;99.90;;;;;;4946202;29;20066;-56
2023/07/05 08:19:23;;;;;;;3.03;1.15;;;15.70;99.90;;;;;;4941158;29;20024;-57
2023/07/05 08:21:49;;;;;;;3.47;1.50;;;15.70;99.90;;;;;;4944903;29;20035;-58
2023/07/05 08:24:16;;;;;;;3.17;1.05;;;15.60;99.90;;;;;;4940837;28;20126;-57
2023/07/05 08:26:42;;;;;;;2.50;0.80;;;15.60;99.90;;;;;;4941952;29;20034;-55
2023/07/05 08:29:08;;;;;;;2.63;1.25;;;15.60;99.90;;;;;;4939896;29;20027;-59
2023/07/05 08:31:35;;;;;;;1.98;0.90;;;15.50;99.90;;;;;;4944705;29;20035;-58
2023/07/05 08:34:01;;;;;;;4.00;1.30;;;15.60;99.90;;;;;;4943734;29;20039;-58
2023/07/05 08:36:38;;;;;;;3.20;1.40;;;15.50;99.90;;;;;;4941697;29;20032;-59
2023/07/05 08:39:05;;;;;;;6.25;1.30;;;15.50;99.90;;;;;;4944941;29;20038;-58
2023/07/05 08:41:44;;;;;;;3.13;1.00;;;15.60;99.90;;;;;;4944099;29;20499;-59
2023/07/05 08:44:47;;;;;;;3.33;1.30;;;15.50;99.90;;;;;;4942002;28;20035;-56
2023/07/05 08:47:18;;;;;;;3.28;0.90;;;15.50;99.90;;;;;;4943624;28;20218;-57
2023/07/05 08:50:14;;;;;;;1.90;0.80;;;15.50;99.90;;;;;;4944305;29;20031;-59
2023/07/05 08:52:44;;;;;;;2.92;1.08;;;15.60;99.90;;;;;;4941796;28;20028;-58
2023/07/05 08:55:18;;;;;;;3.58;1.05;;;15.60;99.90;;;;;;4942856;29;20078;-58
2023/07/05 08:57:51;;;;;;;3.65;1.45;;;15.60;99.90;;;;;;4942268;29;20043;-58
2023/07/05 09:00:40;;;;;;;1.52;0.88;;;15.70;99.90;;;;;;4939087;29;20468;-56
2023/07/05 09:03:10;;;;;;;3.95;1.38;;;15.70;99.90;;;;;;4942633;29;20429;-58
2023/07/05 09:05:51;;;;;;;3.70;1.73;;;15.90;99.90;;;;;;4946667;29;20507;-58
2023/07/05 09:08:35;;;;;;;1.98;0.80;;;16.00;99.90;;;;;;4927764;29;20035;-59
2023/07/05 09:11:12;;;;;;;8.10;1.10;;;16.10;99.90;;;;;;4931992;29;20465;-55
2023/07/05 09:13:40;;;;;;;3.67;0.95;;;16.10;99.90;;;;;;4935312;28;20031;-52
2023/07/05 09:16:22;;;;;;;2.88;1.20;;;16.30;99.90;;;;;;4944100;29;20412;-55
2023/07/05 09:19:05;;;;;;;2.83;1.10;;;16.50;99.90;;;;;;4942011;29;20038;-51
2023/07/05 09:21:45;;;;;;;9.23;1.40;;;16.60;99.90;;;;;;4941726;29;20078;-55
2023/07/05 09:24:20;;;;;;;3.50;1.20;;;16.80;99.90;;;;;;4944225;28;20463;-55
2023/07/05 09:27:17;;;;;;;4.75;1.10;;;17.10;99.90;;;;;;4938696;29;20019;-57
2023/07/05 09:29:51;;;;;;;3.90;1.20;;;17.20;99.90;;;;;;4932563;29;20147;-58
2023/07/05 09:32:24;;;;;;;4.03;1.00;;;17.20;99.90;;;;;;4942062;29;20472;-55
2023/07/05 09:34:55;;;;;;;6.25;1.80;;;17.40;99.90;;;;;;4936754;29;20093;-58
2023/07/05 09:37:27;;;;;;;3.47;1.50;;;17.50;98.90;;;;;;4943151;29;20099;-58
2023/07/05 09:39:56;;;;;;;2.42;1.40;;;17.50;99.30;;;;;;4945072;29;20424;-54
2023/07/05 09:42:49;;;;;;;6.45;1.40;;;17.50;99.50;;;;;;4942282;28;20027;-56
2023/07/05 09:45:16;;;;;;;4.30;1.55;;;17.60;99.60;;;;;;4945282;29;20035;-58
2023/07/05 09:47:46;;;;;;;3.40;1.10;;;17.60;99.40;;;;;;4946023;29;20069;-56
2023/07/05 09:50:18;;;;;;;3.17;1.17;;;17.50;99.20;;;;;;4926472;29;20464;-58
2023/07/05 09:52:50;;;;;;;2.75;1.10;;;17.50;99.10;;;;;;4937404;29;20424;-58
2023/07/05 09:55:19;;;;;;;2.10;1.15;;;17.50;99.20;;;;;;4940298;29;20121;-57
2023/07/05 09:57:45;;;;;;;4.32;1.25;;;17.60;99.00;;;;;;4945168;29;20110;-58
2023/07/05 10:00:31;;;;;;;5.13;1.00;;;17.70;98.50;;;;;;4939161;29;20163;-58
2023/07/05 10:03:09;;;;;;;2.55;0.80;;;17.60;98.10;;;;;;4939650;28;20035;-58
2023/07/05 10:05:34;;;;;;;8.55;2.95;;;17.60;98.60;;;;;;4941217;29;20528;-59
2023/07/05 10:08:04;;;;;;;10.93;5.47;;;17.70;98.30;;;;;;4933837;29;20040;-56
2023/07/05 10:10:40;;;;;;;6.28;2.42;;;18.00;98.30;;;;;;4921958;29;20090;-58
2023/07/05 10:13:14;;;;;;;7.00;1.80;;;18.10;98.10;;;;;;4920344;29;20071;-59
2023/07/05 10:15:42;;;;;;;4.32;1.00;;;18.10;97.80;;;;;;4916693;29;20036;-59
2023/07/05 10:18:26;;;;;;;4.53;2.35;;;18.20;97.60;;;;;;4920260;29;20142;-59
2023/07/05 10:20:52;;;;;;;2.50;0.85;;;18.40;97.50;;;;;;4920822;29;20104;-53
2023/07/05 10:23:22;;;;;;;3.63;1.05;;;18.40;97.30;;;;;;4918649;29;20028;-57
2023/07/05 10:25:49;;;;;;;3.90;1.00;;;18.40;97.20;;;;;;4928855;29;20046;-58
2023/07/05 10:28:18;;;;;;;2.92;0.80;;;18.40;97.20;;;;;;4927345;29;20476;-59
2023/07/05 10:30:56;;;;;;;4.30;1.35;;;18.40;96.50;;;;;;4917747;29;20147;-53
2023/07/05 10:33:28;;;;;;;3.50;0.98;;;18.40;96.20;;;;;;4925623;29;20042;-58
2023/07/05 10:36:09;;;;;;;2.38;0.98;;;18.40;94.90;;;;;;4932173;29;20123;-56
2023/07/05 10:38:41;;;;;;;2.80;1.20;;;18.50;95.10;;;;;;4921609;29;20020;-57
2023/07/05 10:41:19;;;;;;;3.33;1.30;;;18.50;95.50;;;;;;4920087;29;20076;-57
2023/07/05 10:43:50;;;;;;;2.75;0.98;;;18.50;95.90;;;;;;4917489;29;20028;-58
2023/07/05 10:46:21;;;;;;;3.85;1.13;;;18.40;95.10;;;;;;4925409;29;20050;-54
2023/07/05 10:48:48;;;;;;;2.97;1.08;;;18.40;95.10;;;;;;4923532;29;20473;-57
2023/07/05 10:51:20;;;;;;;5.10;1.02;;;18.40;95.10;;;;;;4923684;29;20034;-56
2023/07/05 10:54:17;;;;;;;2.97;1.30;;;18.40;95.00;;;;;;4925171;29;20042;-58
2023/07/05 10:56:45;;;;;;;3.17;1.20;;;18.40;94.60;;;;;;4928635;29;20028;-58
2023/07/05 10:59:25;;;;;;;2.97;1.10;;;18.30;95.20;;;;;;4935939;29;20034;-60
2023/07/05 11:01:58;;;;;;;4.53;1.15;;;18.40;95.20;;;;;;4930383;29;20038;-60
2023/07/05 11:04:29;;;;;;;3.63;1.08;;;18.50;94.70;;;;;;4920990;29;20342;-57
2023/07/05 11:07:00;;;;;;;3.83;0.90;;;18.50;94.20;;;;;;4922166;29;20112;-59
2023/07/05 11:09:28;;;;;;;2.25;0.90;;;18.70;94.40;;;;;;4919274;29;20123;-58
2023/07/05 11:11:58;;;;;;;2.35;1.00;;;18.70;93.70;;;;;;4937426;29;20032;-56
2023/07/05 11:14:28;;;;;;;2.40;0.98;;;18.90;94.20;;;;;;4921521;29;20023;-58
2023/07/05 11:16:55;;;;;;;1.92;0.93;;;19.10;93.00;;;;;;4921867;29;20028;-57
2023/07/05 11:19:28;;;;;;;3.30;0.85;;;19.20;92.30;;;;;;5029520;22;20056;-52
2023/07/05 11:21:54;;;;;;;3.28;0.98;;;19.10;92.50;;;;;;5009037;28;20033;-49
2023/07/05 11:24:38;;;;;;;2.28;0.80;;;19.10;93.20;;;;;;5008213;28;20436;-50
2023/07/05 11:27:30;;;;;;;2.22;0.75;;;19.30;93.10;;;;;;5008603;28;20033;-49
2023/07/05 11:29:58;;;;;;;16.27;8.52;;;19.50;91.90;;;;;;4972828;28;20308;-51
2023/07/05 11:32:48;;;;;;;6.18;3.45;;;19.60;91.90;;;;;;5008723;28;20065;-48
2023/07/05 11:35:45;;;;;;;4.28;1.88;;;19.70;91.00;;;;;;5008197;28;20041;-48
2023/07/05 11:38:40;;;;;;;3.60;1.88;;;19.60;90.90;;;;;;5008379;28;20014;-53
2023/07/05 11:41:25;;;;;;;2.45;1.40;;;19.60;90.60;;;;;;5008469;28;20034;-51
2023/07/05 11:44:03;;;;;;;4.15;1.17;;;19.80;89.60;;;;;;5005169;28;20034;-50
2023/07/05 11:46:37;;;;;;;9.10;4.27;;;19.70;88.80;;;;;;5009070;28;20626;-52
2023/07/05 11:49:24;;;;;;;5.30;1.58;;;19.60;89.60;;;;;;5008599;28;20070;-52
2023/07/05 11:51:57;;;;;;;4.20;1.23;;;19.50;89.40;;;;;;5005316;28;20037;-49
2023/07/05 11:54:35;;;;;;;3.88;1.38;;;19.30;90.50;;;;;;5006750;28;20148;-51
2023/07/05 11:57:04;;;;;;;6.25;0.90;;;19.60;90.60;;;;;;5001079;28;20030;-49
2023/07/05 11:59:34;;;;;;;2.53;0.98;;;19.80;90.40;;;;;;4990571;28;20038;-53
2023/07/05 12:02:08;;;;;;;2.88;0.82;;;20.10;90.50;;;;;;5008773;28;20033;-53
2023/07/05 12:04:37;;;;;;;3.33;0.80;;;20.40;87.90;;;;;;5003328;28;20044;-49
2023/07/05 12:07:03;;;;;;;2.90;0.88;;;20.50;87.20;;;;;;5008193;28;20116;-52
2023/07/05 12:09:38;;;;;;;3.75;1.00;;;20.60;87.20;;;;;;5008566;28;20140;-51
2023/07/05 12:12:05;;;;;;;1.88;0.70;;;20.60;85.60;;;;;;5007880;28;20033;-53
2023/07/05 12:14:32;;;;;;;3.35;1.10;;;20.60;85.60;;;;;;5008178;28;20413;-50
2023/07/05 12:16:58;;;;;;;2.20;0.88;;;20.50;85.10;;;;;;5008007;28;20149;-51
2023/07/05 12:19:33;;;;;;;5.00;1.42;;;20.30;84.00;;;;;;5008162;28;20091;-48
2023/07/05 12:22:04;;;;;;;2.58;0.80;;;20.20;85.50;;;;;;5006956;28;20433;-51
2023/07/05 12:24:46;;;;;;;2.72;0.75;;;20.40;86.10;;;;;;5007793;28;20397;-52
2023/07/05 12:27:24;;;;;;;4.93;2.25;;;20.60;85.30;;;;;;5008797;28;20088;-51
2023/07/05 12:29:56;;;;;;;3.63;1.73;;;20.70;83.00;;;;;;5011463;28;20026;-51
2023/07/05 12:32:27;;;;;;;3.15;1.73;;;20.70;84.30;;;;;;5011658;28;20520;-50
2023/07/05 12:35:14;;;;;;;3.28;1.98;;;21.00;83.40;;;;;;4993969;28;20126;-53
2023/07/05 12:37:40;;;;;;;6.60;3.00;;;21.10;80.80;;;;;;5013284;28;20057;-49
2023/07/05 12:40:21;;;;;;;2.00;0.90;;;21.20;80.20;;;;;;5010696;28;20042;-50
2023/07/05 12:42:52;;;;;;;2.80;1.00;;;21.10;79.50;;;;;;5008111;28;20057;-51
2023/07/05 12:45:22;;;;;;;5.65;1.02;;;20.90;81.00;;;;;;5011509;28;20038;-52
2023/07/05 12:47:48;;;;;;;2.80;0.90;;;20.80;82.30;;;;;;5012002;28;20493;-51
2023/07/05 12:50:19;;;;;;;2.70;0.93;;;20.80;80.70;;;;;;5011926;28;20025;-52
2023/07/05 12:52:47;;;;;;;3.65;1.08;;;20.90;79.90;;;;;;5011817;28;20133;-52
2023/07/05 12:55:27;;;;;;;1.92;1.00;;;21.20;82.10;;;;;;5011024;28;20041;-52
2023/07/05 12:57:55;;;;;;;3.58;1.08;;;21.40;81.80;;;;;;5011498;28;20025;-51
2023/07/05 13:00:21;;;;;;;2.20;1.33;;;21.50;78.70;;;;;;5011032;28;20413;-49
2023/07/05 13:02:47;;;;;;;2.17;1.02;;;21.60;78.10;;;;;;5011184;28;20121;-50